sensor_id;sensor_type;location;lat;lon;timestamp;P1;durP1;ratioP1;P2;durP2;ratioP2
14858;SDS011;7521;51.700;6.874;2024-02-21T00:00:27;29.30;;;12.53;;
14858;SDS011;7521;51.700;6.874;2024-02-21T00:03:33;28.70;;;12.93;;
14858;SDS011;7521;51.700;6.874;2024-02-21T00:06:38;31.23;;;13.93;;
14858;SDS011;7521;51.700;6.874;2024-02-21T00:09:43;39.07;;;13.83;;
14858;SDS011;7521;51.700;6.874;2024-02-21T00:12:48;28.00;;;13.93;;
14858;SDS011;7521;51.700;6.874;2024-02-21T00:15:54;33.93;;;13.57;;
14858;SDS011;7521;51.700;6.874;2024-02-21T00:18:59;32.10;;;13.82;;
14858;SDS011;7521;51.700;6.874;2024-02-21T00:22:04;31.63;;;13.88;;
14858;SDS011;7521;51.700;6.874;2024-02-21T00:25:09;33.60;;;14.50;;
14858;SDS011;7521;51.700;6.874;2024-02-21T00:28:15;29.50;;;13.67;;
14858;SDS011;7521;51.700;6.874;2024-02-21T00:31:20;28.27;;;12.93;;
14858;SDS011;7521;51.700;6.874;2024-02-21T00:34:25;35.00;;;13.47;;
14858;SDS011;7521;51.700;6.874;2024-02-21T00:37:31;27.48;;;14.45;;
14858;SDS011;7521;51.700;6.874;2024-02-21T00:40:36;30.83;;;13.80;;
14858;SDS011;7521;51.700;6.874;2024-02-21T00:43:41;31.27;;;14.83;;
14858;SDS011;7521;51.700;6.874;2024-02-21T00:46:47;31.67;;;14.33;;
14858;SDS011;7521;51.700;6.874;2024-02-21T00:49:52;29.87;;;14.23;;
14858;SDS011;7521;51.700;6.874;2024-02-21T00:52:57;30.25;;;13.95;;
14858;SDS011;7521;51.700;6.874;2024-02-21T00:56:03;33.73;;;14.13;;
14858;SDS011;7521;51.700;6.874;2024-02-21T00:59:08;34.03;;;13.67;;
14858;SDS011;7521;51.700;6.874;2024-02-21T01:02:13;31.10;;;14.82;;
14858;SDS011;7521;51.700;6.874;2024-02-21T01:05:18;30.85;;;15.15;;
14858;SDS011;7521;51.700;6.874;2024-02-21T01:08:25;31.17;;;14.63;;
14858;SDS011;7521;51.700;6.874;2024-02-21T01:11:30;33.55;;;14.65;;
14858;SDS011;7521;51.700;6.874;2024-02-21T01:14:35;34.22;;;14.93;;
14858;SDS011;7521;51.700;6.874;2024-02-21T01:17:40;31.10;;;14.25;;
14858;SDS011;7521;51.700;6.874;2024-02-21T01:20:45;29.43;;;14.43;;
14858;SDS011;7521;51.700;6.874;2024-02-21T01:23:50;29.10;;;13.20;;
14858;SDS011;7521;51.700;6.874;2024-02-21T01:26:56;26.83;;;13.15;;
14858;SDS011;7521;51.700;6.874;2024-02-21T01:30:01;26.98;;;14.32;;
14858;SDS011;7521;51.700;6.874;2024-02-21T01:33:06;30.73;;;13.63;;
14858;SDS011;7521;51.700;6.874;2024-02-21T01:36:11;30.17;;;13.13;;
14858;SDS011;7521;51.700;6.874;2024-02-21T01:39:16;29.70;;;13.98;;
14858;SDS011;7521;51.700;6.874;2024-02-21T01:42:22;28.60;;;13.13;;
14858;SDS011;7521;51.700;6.874;2024-02-21T01:45:27;25.90;;;14.20;;
14858;SDS011;7521;51.700;6.874;2024-02-21T01:48:32;27.80;;;13.30;;
14858;SDS011;7521;51.700;6.874;2024-02-21T01:51:38;28.67;;;13.77;;
14858;SDS011;7521;51.700;6.874;2024-02-21T01:54:44;24.33;;;13.23;;
14858;SDS011;7521;51.700;6.874;2024-02-21T01:57:49;31.87;;;13.80;;
14858;SDS011;7521;51.700;6.874;2024-02-21T02:00:54;32.10;;;13.83;;
14858;SDS011;7521;51.700;6.874;2024-02-21T02:04:01;30.80;;;14.50;;
14858;SDS011;7521;51.700;6.874;2024-02-21T02:07:07;32.60;;;14.20;;
14858;SDS011;7521;51.700;6.874;2024-02-21T02:10:12;28.60;;;14.43;;
14858;SDS011;7521;51.700;6.874;2024-02-21T02:13:18;29.37;;;14.43;;
14858;SDS011;7521;51.700;6.874;2024-02-21T02:16:23;26.43;;;13.10;;
14858;SDS011;7521;51.700;6.874;2024-02-21T02:19:28;33.20;;;14.07;;
14858;SDS011;7521;51.700;6.874;2024-02-21T02:22:33;25.23;;;12.70;;
14858;SDS011;7521;51.700;6.874;2024-02-21T02:25:41;28.33;;;12.67;;
14858;SDS011;7521;51.700;6.874;2024-02-21T02:28:47;28.27;;;14.17;;
14858;SDS011;7521;51.700;6.874;2024-02-21T02:31:52;30.67;;;14.43;;
14858;SDS011;7521;51.700;6.874;2024-02-21T02:34:58;24.47;;;13.17;;
14858;SDS011;7521;51.700;6.874;2024-02-21T02:38:03;28.87;;;12.83;;
14858;SDS011;7521;51.700;6.874;2024-02-21T02:41:08;29.23;;;13.63;;
14858;SDS011;7521;51.700;6.874;2024-02-21T02:44:13;26.67;;;12.70;;
14858;SDS011;7521;51.700;6.874;2024-02-21T02:47:19;23.43;;;11.73;;
14858;SDS011;7521;51.700;6.874;2024-02-21T02:50:24;24.40;;;13.00;;
14858;SDS011;7521;51.700;6.874;2024-02-21T02:53:30;28.13;;;13.40;;
14858;SDS011;7521;51.700;6.874;2024-02-21T02:56:35;29.58;;;11.82;;
14858;SDS011;7521;51.700;6.874;2024-02-21T02:59:40;28.50;;;12.50;;
14858;SDS011;7521;51.700;6.874;2024-02-21T03:02:46;28.77;;;13.23;;
14858;SDS011;7521;51.700;6.874;2024-02-21T03:05:53;21.50;;;11.90;;
14858;SDS011;7521;51.700;6.874;2024-02-21T03:08:58;25.50;;;12.33;;
14858;SDS011;7521;51.700;6.874;2024-02-21T03:12:05;22.53;;;11.00;;
14858;SDS011;7521;51.700;6.874;2024-02-21T03:15:11;23.53;;;11.93;;
14858;SDS011;7521;51.700;6.874;2024-02-21T03:18:17;22.97;;;11.57;;
14858;SDS011;7521;51.700;6.874;2024-02-21T03:21:22;20.95;;;11.07;;
14858;SDS011;7521;51.700;6.874;2024-02-21T03:24:27;19.95;;;11.35;;
14858;SDS011;7521;51.700;6.874;2024-02-21T03:27:34;23.73;;;10.70;;
14858;SDS011;7521;51.700;6.874;2024-02-21T03:30:39;22.60;;;11.10;;
14858;SDS011;7521;51.700;6.874;2024-02-21T03:33:44;22.10;;;11.07;;
14858;SDS011;7521;51.700;6.874;2024-02-21T03:36:50;22.67;;;10.73;;
14858;SDS011;7521;51.700;6.874;2024-02-21T03:39:55;29.20;;;11.47;;
14858;SDS011;7521;51.700;6.874;2024-02-21T03:43:00;24.63;;;10.63;;
14858;SDS011;7521;51.700;6.874;2024-02-21T03:46:05;23.50;;;11.48;;
14858;SDS011;7521;51.700;6.874;2024-02-21T03:49:11;27.83;;;11.80;;
14858;SDS011;7521;51.700;6.874;2024-02-21T03:52:16;19.87;;;10.00;;
14858;SDS011;7521;51.700;6.874;2024-02-21T03:55:21;23.10;;;10.60;;
14858;SDS011;7521;51.700;6.874;2024-02-21T03:58:27;22.63;;;9.83;;
14858;SDS011;7521;51.700;6.874;2024-02-21T04:01:32;22.80;;;10.70;;
14858;SDS011;7521;51.700;6.874;2024-02-21T04:04:37;20.73;;;10.07;;
14858;SDS011;7521;51.700;6.874;2024-02-21T04:07:42;20.87;;;10.33;;
14858;SDS011;7521;51.700;6.874;2024-02-21T04:10:48;17.90;;;11.23;;
14858;SDS011;7521;51.700;6.874;2024-02-21T04:13:53;24.97;;;11.10;;
14858;SDS011;7521;51.700;6.874;2024-02-21T04:16:58;27.13;;;10.80;;
14858;SDS011;7521;51.700;6.874;2024-02-21T04:20:04;20.02;;;10.48;;
14858;SDS011;7521;51.700;6.874;2024-02-21T04:23:10;24.07;;;10.73;;
14858;SDS011;7521;51.700;6.874;2024-02-21T04:26:15;22.13;;;10.77;;
14858;SDS011;7521;51.700;6.874;2024-02-21T04:29:20;24.08;;;10.13;;
14858;SDS011;7521;51.700;6.874;2024-02-21T04:32:25;18.70;;;9.63;;
14858;SDS011;7521;51.700;6.874;2024-02-21T04:35:32;19.67;;;9.83;;
14858;SDS011;7521;51.700;6.874;2024-02-21T04:38:37;20.10;;;10.50;;
14858;SDS011;7521;51.700;6.874;2024-02-21T04:41:44;20.67;;;9.57;;
14858;SDS011;7521;51.700;6.874;2024-02-21T04:44:49;13.88;;;9.18;;
14858;SDS011;7521;51.700;6.874;2024-02-21T04:47:54;20.42;;;9.18;;
14858;SDS011;7521;51.700;6.874;2024-02-21T04:50:59;16.83;;;8.10;;
14858;SDS011;7521;51.700;6.874;2024-02-21T04:54:04;17.05;;;8.40;;
14858;SDS011;7521;51.700;6.874;2024-02-21T04:57:09;21.50;;;8.87;;
14858;SDS011;7521;51.700;6.874;2024-02-21T05:00:21;20.73;;;9.93;;
14858;SDS011;7521;51.700;6.874;2024-02-21T05:03:27;15.53;;;8.03;;
14858;SDS011;7521;51.700;6.874;2024-02-21T05:06:32;17.63;;;8.33;;
14858;SDS011;7521;51.700;6.874;2024-02-21T05:09:37;17.83;;;8.00;;
14858;SDS011;7521;51.700;6.874;2024-02-21T05:12:42;24.70;;;8.83;;
14858;SDS011;7521;51.700;6.874;2024-02-21T05:15:48;16.03;;;8.53;;
14858;SDS011;7521;51.700;6.874;2024-02-21T05:18:53;16.70;;;9.07;;
14858;SDS011;7521;51.700;6.874;2024-02-21T05:21:58;15.02;;;8.55;;
14858;SDS011;7521;51.700;6.874;2024-02-21T05:25:04;19.40;;;8.83;;
14858;SDS011;7521;51.700;6.874;2024-02-21T05:28:09;17.70;;;8.67;;
14858;SDS011;7521;51.700;6.874;2024-02-21T05:31:14;17.57;;;8.60;;
14858;SDS011;7521;51.700;6.874;2024-02-21T05:34:20;15.80;;;7.93;;
14858;SDS011;7521;51.700;6.874;2024-02-21T05:37:25;18.30;;;8.07;;
14858;SDS011;7521;51.700;6.874;2024-02-21T05:40:30;15.80;;;7.70;;
14858;SDS011;7521;51.700;6.874;2024-02-21T05:43:35;14.37;;;7.37;;
14858;SDS011;7521;51.700;6.874;2024-02-21T05:46:41;18.23;;;6.40;;
14858;SDS011;7521;51.700;6.874;2024-02-21T05:49:46;16.70;;;6.88;;
14858;SDS011;7521;51.700;6.874;2024-02-21T05:52:51;13.20;;;7.00;;
14858;SDS011;7521;51.700;6.874;2024-02-21T05:55:57;13.33;;;6.30;;
14858;SDS011;7521;51.700;6.874;2024-02-21T05:59:02;13.80;;;6.63;;
14858;SDS011;7521;51.700;6.874;2024-02-21T06:02:07;10.52;;;6.35;;
14858;SDS011;7521;51.700;6.874;2024-02-21T06:05:12;15.00;;;5.88;;
14858;SDS011;7521;51.700;6.874;2024-02-21T06:08:18;13.40;;;6.97;;
14858;SDS011;7521;51.700;6.874;2024-02-21T06:11:23;17.40;;;7.70;;
14858;SDS011;7521;51.700;6.874;2024-02-21T06:14:29;16.20;;;7.00;;
14858;SDS011;7521;51.700;6.874;2024-02-21T06:17:34;14.55;;;6.60;;
14858;SDS011;7521;51.700;6.874;2024-02-21T06:20:39;13.10;;;6.33;;
14858;SDS011;7521;51.700;6.874;2024-02-21T06:23:46;12.17;;;5.93;;
14858;SDS011;7521;51.700;6.874;2024-02-21T06:26:52;16.55;;;6.55;;
14858;SDS011;7521;51.700;6.874;2024-02-21T06:29:57;17.00;;;6.47;;
14858;SDS011;7521;51.700;6.874;2024-02-21T06:33:02;12.50;;;6.45;;
14858;SDS011;7521;51.700;6.874;2024-02-21T06:36:07;15.60;;;6.73;;
14858;SDS011;7521;51.700;6.874;2024-02-21T06:39:13;18.17;;;7.30;;
14858;SDS011;7521;51.700;6.874;2024-02-21T06:42:18;20.33;;;7.37;;
14858;SDS011;7521;51.700;6.874;2024-02-21T06:45:23;13.17;;;6.07;;
14858;SDS011;7521;51.700;6.874;2024-02-21T06:48:28;12.38;;;5.95;;
14858;SDS011;7521;51.700;6.874;2024-02-21T06:51:33;14.55;;;5.88;;
14858;SDS011;7521;51.700;6.874;2024-02-21T06:54:39;12.17;;;6.00;;
14858;SDS011;7521;51.700;6.874;2024-02-21T06:57:45;17.57;;;6.13;;
14858;SDS011;7521;51.700;6.874;2024-02-21T07:00:50;12.93;;;6.03;;
14858;SDS011;7521;51.700;6.874;2024-02-21T07:03:56;15.87;;;6.57;;
14858;SDS011;7521;51.700;6.874;2024-02-21T07:07:01;13.17;;;6.37;;
14858;SDS011;7521;51.700;6.874;2024-02-21T07:10:06;16.83;;;6.33;;
14858;SDS011;7521;51.700;6.874;2024-02-21T07:13:12;15.97;;;6.90;;
14858;SDS011;7521;51.700;6.874;2024-02-21T07:16:18;16.00;;;7.20;;
14858;SDS011;7521;51.700;6.874;2024-02-21T07:19:23;16.17;;;7.68;;
14858;SDS011;7521;51.700;6.874;2024-02-21T07:22:28;13.37;;;6.53;;
14858;SDS011;7521;51.700;6.874;2024-02-21T07:25:34;14.57;;;6.97;;
14858;SDS011;7521;51.700;6.874;2024-02-21T07:28:39;15.87;;;7.57;;
14858;SDS011;7521;51.700;6.874;2024-02-21T07:31:44;14.80;;;7.33;;
14858;SDS011;7521;51.700;6.874;2024-02-21T07:34:50;11.77;;;6.75;;
14858;SDS011;7521;51.700;6.874;2024-02-21T07:37:55;16.23;;;7.00;;
14858;SDS011;7521;51.700;6.874;2024-02-21T07:41:00;14.93;;;7.23;;
14858;SDS011;7521;51.700;6.874;2024-02-21T07:44:05;16.50;;;7.32;;
14858;SDS011;7521;51.700;6.874;2024-02-21T07:47:10;14.23;;;7.10;;
14858;SDS011;7521;51.700;6.874;2024-02-21T07:50:16;13.93;;;6.97;;
14858;SDS011;7521;51.700;6.874;2024-02-21T07:53:21;15.93;;;6.60;;
14858;SDS011;7521;51.700;6.874;2024-02-21T07:56:27;14.97;;;6.63;;
14858;SDS011;7521;51.700;6.874;2024-02-21T07:59:32;15.53;;;7.20;;
14858;SDS011;7521;51.700;6.874;2024-02-21T08:02:37;14.43;;;7.30;;
14858;SDS011;7521;51.700;6.874;2024-02-21T08:05:43;17.63;;;7.63;;
14858;SDS011;7521;51.700;6.874;2024-02-21T08:08:48;22.20;;;7.23;;
14858;SDS011;7521;51.700;6.874;2024-02-21T08:11:54;14.40;;;6.97;;
14858;SDS011;7521;51.700;6.874;2024-02-21T08:14:59;13.73;;;7.30;;
14858;SDS011;7521;51.700;6.874;2024-02-21T08:18:05;17.03;;;7.20;;
14858;SDS011;7521;51.700;6.874;2024-02-21T08:21:10;16.83;;;6.50;;
14858;SDS011;7521;51.700;6.874;2024-02-21T08:24:16;15.33;;;6.90;;
14858;SDS011;7521;51.700;6.874;2024-02-21T08:27:21;14.77;;;6.83;;
14858;SDS011;7521;51.700;6.874;2024-02-21T08:30:26;11.60;;;6.30;;
14858;SDS011;7521;51.700;6.874;2024-02-21T08:33:32;14.73;;;6.87;;
14858;SDS011;7521;51.700;6.874;2024-02-21T08:36:37;15.10;;;8.57;;
14858;SDS011;7521;51.700;6.874;2024-02-21T08:39:42;10.03;;;6.13;;
14858;SDS011;7521;51.700;6.874;2024-02-21T08:42:48;11.27;;;5.68;;
14858;SDS011;7521;51.700;6.874;2024-02-21T08:45:54;9.37;;;5.97;;
14858;SDS011;7521;51.700;6.874;2024-02-21T08:48:59;16.13;;;6.15;;
14858;SDS011;7521;51.700;6.874;2024-02-21T08:52:04;11.82;;;5.88;;
14858;SDS011;7521;51.700;6.874;2024-02-21T08:55:10;12.23;;;5.70;;
14858;SDS011;7521;51.700;6.874;2024-02-21T08:58:15;11.33;;;5.10;;
14858;SDS011;7521;51.700;6.874;2024-02-21T09:01:20;9.23;;;5.00;;
14858;SDS011;7521;51.700;6.874;2024-02-21T09:04:26;11.67;;;4.77;;
14858;SDS011;7521;51.700;6.874;2024-02-21T09:07:31;14.47;;;5.17;;
14858;SDS011;7521;51.700;6.874;2024-02-21T09:10:36;14.70;;;5.68;;
14858;SDS011;7521;51.700;6.874;2024-02-21T09:13:42;12.50;;;4.70;;
14858;SDS011;7521;51.700;6.874;2024-02-21T09:16:47;9.85;;;4.95;;
14858;SDS011;7521;51.700;6.874;2024-02-21T09:19:52;8.37;;;4.33;;
14858;SDS011;7521;51.700;6.874;2024-02-21T09:23:00;14.67;;;4.77;;
14858;SDS011;7521;51.700;6.874;2024-02-21T09:26:05;12.03;;;4.33;;
14858;SDS011;7521;51.700;6.874;2024-02-21T09:29:10;12.17;;;5.13;;
14858;SDS011;7521;51.700;6.874;2024-02-21T09:32:15;17.77;;;5.55;;
14858;SDS011;7521;51.700;6.874;2024-02-21T09:35:20;13.73;;;5.57;;
14858;SDS011;7521;51.700;6.874;2024-02-21T09:38:28;17.80;;;6.50;;
14858;SDS011;7521;51.700;6.874;2024-02-21T09:41:33;13.02;;;5.38;;
14858;SDS011;7521;51.700;6.874;2024-02-21T09:44:40;16.27;;;5.40;;
14858;SDS011;7521;51.700;6.874;2024-02-21T09:50:50;12.83;;;4.93;;
14858;SDS011;7521;51.700;6.874;2024-02-21T09:53:56;15.10;;;4.80;;
14858;SDS011;7521;51.700;6.874;2024-02-21T09:57:02;11.10;;;4.70;;
14858;SDS011;7521;51.700;6.874;2024-02-21T10:00:08;9.03;;;3.60;;
14858;SDS011;7521;51.700;6.874;2024-02-21T10:03:13;10.63;;;4.20;;
14858;SDS011;7521;51.700;6.874;2024-02-21T10:06:19;7.47;;;3.63;;
14858;SDS011;7521;51.700;6.874;2024-02-21T10:09:25;8.10;;;3.80;;
14858;SDS011;7521;51.700;6.874;2024-02-21T10:12:32;9.97;;;3.90;;
14858;SDS011;7521;51.700;6.874;2024-02-21T10:15:37;7.38;;;3.40;;
14858;SDS011;7521;51.700;6.874;2024-02-21T10:18:43;6.57;;;3.63;;
14858;SDS011;7521;51.700;6.874;2024-02-21T10:22:00;9.90;;;4.13;;
14858;SDS011;7521;51.700;6.874;2024-02-21T10:25:09;10.13;;;4.70;;
14858;SDS011;7521;51.700;6.874;2024-02-21T10:28:15;10.43;;;3.80;;
14858;SDS011;7521;51.700;6.874;2024-02-21T10:31:22;8.43;;;4.03;;
14858;SDS011;7521;51.700;6.874;2024-02-21T10:34:28;15.23;;;4.83;;
14858;SDS011;7521;51.700;6.874;2024-02-21T10:37:33;12.70;;;4.07;;
14858;SDS011;7521;51.700;6.874;2024-02-21T10:40:38;10.73;;;3.90;;
14858;SDS011;7521;51.700;6.874;2024-02-21T10:43:43;11.90;;;3.67;;
14858;SDS011;7521;51.700;6.874;2024-02-21T10:46:51;14.30;;;6.13;;
14858;SDS011;7521;51.700;6.874;2024-02-21T10:49:57;8.90;;;3.60;;
14858;SDS011;7521;51.700;6.874;2024-02-21T10:59:29;9.77;;;3.63;;
14858;SDS011;7521;51.700;6.874;2024-02-21T11:02:35;8.90;;;3.33;;
14858;SDS011;7521;51.700;6.874;2024-02-21T11:05:40;9.37;;;3.67;;
14858;SDS011;7521;51.700;6.874;2024-02-21T11:08:47;11.57;;;3.87;;
14858;SDS011;7521;51.700;6.874;2024-02-21T11:11:55;9.43;;;4.10;;
14858;SDS011;7521;51.700;6.874;2024-02-21T11:15:04;10.20;;;4.10;;
14858;SDS011;7521;51.700;6.874;2024-02-21T11:18:10;8.90;;;3.60;;
14858;SDS011;7521;51.700;6.874;2024-02-21T11:21:15;7.25;;;3.33;;
14858;SDS011;7521;51.700;6.874;2024-02-21T11:27:33;11.77;;;3.33;;
14858;SDS011;7521;51.700;6.874;2024-02-21T11:30:39;9.87;;;3.77;;
14858;SDS011;7521;51.700;6.874;2024-02-21T11:33:44;12.13;;;3.67;;
14858;SDS011;7521;51.700;6.874;2024-02-21T11:36:52;10.47;;;3.53;;
14858;SDS011;7521;51.700;6.874;2024-02-21T11:39:57;9.90;;;3.40;;
14858;SDS011;7521;51.700;6.874;2024-02-21T11:43:03;9.17;;;3.70;;
14858;SDS011;7521;51.700;6.874;2024-02-21T11:46:08;9.43;;;4.27;;
14858;SDS011;7521;51.700;6.874;2024-02-21T11:49:14;10.00;;;3.70;;
14858;SDS011;7521;51.700;6.874;2024-02-21T11:52:23;10.43;;;4.00;;
14858;SDS011;7521;51.700;6.874;2024-02-21T11:55:32;11.83;;;4.10;;
14858;SDS011;7521;51.700;6.874;2024-02-21T11:58:37;9.70;;;3.67;;
14858;SDS011;7521;51.700;6.874;2024-02-21T12:01:43;13.07;;;3.83;;
14858;SDS011;7521;51.700;6.874;2024-02-21T12:04:48;7.63;;;3.60;;
14858;SDS011;7521;51.700;6.874;2024-02-21T12:07:54;7.40;;;3.73;;
14858;SDS011;7521;51.700;6.874;2024-02-21T12:11:00;8.70;;;3.57;;
14858;SDS011;7521;51.700;6.874;2024-02-21T12:14:05;9.80;;;3.67;;
14858;SDS011;7521;51.700;6.874;2024-02-21T12:17:10;13.90;;;3.63;;
14858;SDS011;7521;51.700;6.874;2024-02-21T12:20:15;6.77;;;3.00;;
14858;SDS011;7521;51.700;6.874;2024-02-21T12:23:21;9.83;;;3.30;;
14858;SDS011;7521;51.700;6.874;2024-02-21T12:26:26;8.60;;;3.50;;
14858;SDS011;7521;51.700;6.874;2024-02-21T12:29:34;11.17;;;3.73;;
14858;SDS011;7521;51.700;6.874;2024-02-21T12:32:39;8.00;;;3.53;;
14858;SDS011;7521;51.700;6.874;2024-02-21T12:35:44;13.30;;;3.97;;
14858;SDS011;7521;51.700;6.874;2024-02-21T12:38:49;9.10;;;3.35;;
14858;SDS011;7521;51.700;6.874;2024-02-21T12:41:54;7.45;;;3.60;;
14858;SDS011;7521;51.700;6.874;2024-02-21T12:45:04;8.60;;;3.50;;
14858;SDS011;7521;51.700;6.874;2024-02-21T12:48:09;8.50;;;3.93;;
14858;SDS011;7521;51.700;6.874;2024-02-21T12:51:15;8.73;;;3.57;;
14858;SDS011;7521;51.700;6.874;2024-02-21T12:54:20;4.80;;;2.83;;
14858;SDS011;7521;51.700;6.874;2024-02-21T12:57:26;10.47;;;3.83;;
14858;SDS011;7521;51.700;6.874;2024-02-21T13:00:31;9.93;;;3.83;;
14858;SDS011;7521;51.700;6.874;2024-02-21T13:03:37;11.63;;;3.37;;
14858;SDS011;7521;51.700;6.874;2024-02-21T13:06:42;11.20;;;3.27;;
14858;SDS011;7521;51.700;6.874;2024-02-21T13:09:49;12.30;;;3.20;;
14858;SDS011;7521;51.700;6.874;2024-02-21T13:12:54;7.53;;;3.27;;
14858;SDS011;7521;51.700;6.874;2024-02-21T13:15:59;11.87;;;2.97;;
14858;SDS011;7521;51.700;6.874;2024-02-21T13:19:05;11.25;;;3.95;;
14858;SDS011;7521;51.700;6.874;2024-02-21T13:22:10;9.10;;;3.10;;
14858;SDS011;7521;51.700;6.874;2024-02-21T13:25:16;8.57;;;3.10;;
14858;SDS011;7521;51.700;6.874;2024-02-21T13:28:23;8.50;;;2.93;;
14858;SDS011;7521;51.700;6.874;2024-02-21T13:31:28;9.00;;;3.40;;
14858;SDS011;7521;51.700;6.874;2024-02-21T13:34:33;7.55;;;2.85;;
14858;SDS011;7521;51.700;6.874;2024-02-21T13:37:38;8.33;;;2.93;;
14858;SDS011;7521;51.700;6.874;2024-02-21T13:40:44;10.97;;;3.47;;
14858;SDS011;7521;51.700;6.874;2024-02-21T13:43:49;12.03;;;4.60;;
14858;SDS011;7521;51.700;6.874;2024-02-21T13:46:55;9.83;;;3.67;;
14858;SDS011;7521;51.700;6.874;2024-02-21T13:50:00;12.27;;;3.20;;
14858;SDS011;7521;51.700;6.874;2024-02-21T13:53:06;9.60;;;2.57;;
14858;SDS011;7521;51.700;6.874;2024-02-21T13:56:11;9.35;;;3.08;;
14858;SDS011;7521;51.700;6.874;2024-02-21T13:59:16;10.50;;;3.33;;
14858;SDS011;7521;51.700;6.874;2024-02-21T14:02:21;9.77;;;2.47;;
14858;SDS011;7521;51.700;6.874;2024-02-21T14:05:26;9.55;;;2.55;;
14858;SDS011;7521;51.700;6.874;2024-02-21T14:08:32;6.70;;;2.60;;
14858;SDS011;7521;51.700;6.874;2024-02-21T14:11:39;6.00;;;2.20;;
14858;SDS011;7521;51.700;6.874;2024-02-21T14:14:46;9.93;;;2.90;;
14858;SDS011;7521;51.700;6.874;2024-02-21T14:17:51;5.78;;;2.42;;
14858;SDS011;7521;51.700;6.874;2024-02-21T14:20:56;7.80;;;2.17;;
14858;SDS011;7521;51.700;6.874;2024-02-21T14:24:01;7.63;;;2.73;;
14858;SDS011;7521;51.700;6.874;2024-02-21T14:27:07;9.43;;;2.60;;
14858;SDS011;7521;51.700;6.874;2024-02-21T14:30:13;9.13;;;2.40;;
14858;SDS011;7521;51.700;6.874;2024-02-21T14:33:19;8.57;;;2.60;;
14858;SDS011;7521;51.700;6.874;2024-02-21T14:36:24;8.03;;;2.67;;
14858;SDS011;7521;51.700;6.874;2024-02-21T14:39:29;6.60;;;2.60;;
14858;SDS011;7521;51.700;6.874;2024-02-21T14:42:34;7.90;;;2.80;;
14858;SDS011;7521;51.700;6.874;2024-02-21T14:45:40;9.02;;;2.42;;
14858;SDS011;7521;51.700;6.874;2024-02-21T14:48:45;6.73;;;2.57;;
14858;SDS011;7521;51.700;6.874;2024-02-21T14:51:50;8.27;;;3.33;;
14858;SDS011;7521;51.700;6.874;2024-02-21T14:54:55;7.75;;;2.97;;
14858;SDS011;7521;51.700;6.874;2024-02-21T14:58:01;6.80;;;2.40;;
14858;SDS011;7521;51.700;6.874;2024-02-21T15:01:07;16.95;;;3.17;;
14858;SDS011;7521;51.700;6.874;2024-02-21T15:04:12;8.43;;;2.67;;
14858;SDS011;7521;51.700;6.874;2024-02-21T15:07:17;7.87;;;2.90;;
14858;SDS011;7521;51.700;6.874;2024-02-21T15:10:23;6.47;;;2.53;;
14858;SDS011;7521;51.700;6.874;2024-02-21T15:13:29;10.82;;;2.63;;
14858;SDS011;7521;51.700;6.874;2024-02-21T15:16:35;10.07;;;2.43;;
14858;SDS011;7521;51.700;6.874;2024-02-21T15:19:41;11.27;;;2.80;;
14858;SDS011;7521;51.700;6.874;2024-02-21T15:22:49;6.50;;;2.47;;
14858;SDS011;7521;51.700;6.874;2024-02-21T15:25:54;7.63;;;2.53;;
14858;SDS011;7521;51.700;6.874;2024-02-21T15:28:59;6.03;;;2.60;;
14858;SDS011;7521;51.700;6.874;2024-02-21T15:32:05;5.53;;;2.77;;
14858;SDS011;7521;51.700;6.874;2024-02-21T15:35:10;5.73;;;2.60;;
14858;SDS011;7521;51.700;6.874;2024-02-21T15:38:16;9.50;;;2.80;;
14858;SDS011;7521;51.700;6.874;2024-02-21T15:41:21;10.73;;;3.27;;
14858;SDS011;7521;51.700;6.874;2024-02-21T15:44:26;9.00;;;2.90;;
14858;SDS011;7521;51.700;6.874;2024-02-21T15:47:31;6.53;;;2.97;;
14858;SDS011;7521;51.700;6.874;2024-02-21T15:50:39;7.80;;;2.50;;
14858;SDS011;7521;51.700;6.874;2024-02-21T15:53:44;7.13;;;2.67;;
14858;SDS011;7521;51.700;6.874;2024-02-21T15:56:50;7.27;;;2.53;;
14858;SDS011;7521;51.700;6.874;2024-02-21T15:59:55;8.70;;;2.77;;
14858;SDS011;7521;51.700;6.874;2024-02-21T16:03:00;6.60;;;2.73;;
14858;SDS011;7521;51.700;6.874;2024-02-21T16:06:05;7.97;;;2.70;;
14858;SDS011;7521;51.700;6.874;2024-02-21T16:09:10;8.43;;;2.73;;
14858;SDS011;7521;51.700;6.874;2024-02-21T16:12:16;10.67;;;2.83;;
14858;SDS011;7521;51.700;6.874;2024-02-21T16:15:21;8.50;;;3.07;;
14858;SDS011;7521;51.700;6.874;2024-02-21T16:18:27;6.87;;;2.63;;
14858;SDS011;7521;51.700;6.874;2024-02-21T16:21:33;14.60;;;3.63;;
14858;SDS011;7521;51.700;6.874;2024-02-21T16:24:38;6.37;;;2.50;;
14858;SDS011;7521;51.700;6.874;2024-02-21T16:27:43;5.28;;;2.45;;
14858;SDS011;7521;51.700;6.874;2024-02-21T16:30:48;8.25;;;3.30;;
14858;SDS011;7521;51.700;6.874;2024-02-21T16:33:55;5.37;;;2.43;;
14858;SDS011;7521;51.700;6.874;2024-02-21T16:37:00;6.67;;;2.80;;
14858;SDS011;7521;51.700;6.874;2024-02-21T16:40:05;8.65;;;3.40;;
14858;SDS011;7521;51.700;6.874;2024-02-21T16:43:11;8.17;;;2.97;;
14858;SDS011;7521;51.700;6.874;2024-02-21T16:46:16;5.73;;;3.20;;
14858;SDS011;7521;51.700;6.874;2024-02-21T16:49:21;8.30;;;3.63;;
14858;SDS011;7521;51.700;6.874;2024-02-21T16:52:27;10.53;;;3.70;;
14858;SDS011;7521;51.700;6.874;2024-02-21T16:55:32;9.00;;;3.50;;
14858;SDS011;7521;51.700;6.874;2024-02-21T16:58:39;9.40;;;3.42;;
14858;SDS011;7521;51.700;6.874;2024-02-21T17:01:44;6.47;;;3.10;;
14858;SDS011;7521;51.700;6.874;2024-02-21T17:04:50;12.43;;;3.37;;
14858;SDS011;7521;51.700;6.874;2024-02-21T17:07:56;10.43;;;3.40;;
14858;SDS011;7521;51.700;6.874;2024-02-21T17:11:02;8.27;;;3.20;;
14858;SDS011;7521;51.700;6.874;2024-02-21T17:14:07;10.10;;;3.73;;
14858;SDS011;7521;51.700;6.874;2024-02-21T17:17:13;11.60;;;4.37;;
14858;SDS011;7521;51.700;6.874;2024-02-21T17:20:19;8.47;;;4.50;;
14858;SDS011;7521;51.700;6.874;2024-02-21T17:23:24;12.10;;;5.40;;
14858;SDS011;7521;51.700;6.874;2024-02-21T17:26:30;12.90;;;6.57;;
14858;SDS011;7521;51.700;6.874;2024-02-21T17:29:35;16.92;;;5.90;;
14858;SDS011;7521;51.700;6.874;2024-02-21T17:32:40;9.97;;;5.47;;
14858;SDS011;7521;51.700;6.874;2024-02-21T17:35:46;15.53;;;8.73;;
14858;SDS011;7521;51.700;6.874;2024-02-21T17:38:53;13.83;;;6.83;;
14858;SDS011;7521;51.700;6.874;2024-02-21T17:41:58;17.17;;;8.07;;
14858;SDS011;7521;51.700;6.874;2024-02-21T17:45:04;8.10;;;4.60;;
14858;SDS011;7521;51.700;6.874;2024-02-21T17:48:09;6.17;;;3.83;;
14858;SDS011;7521;51.700;6.874;2024-02-21T17:51:14;8.53;;;4.13;;
14858;SDS011;7521;51.700;6.874;2024-02-21T17:54:19;9.80;;;6.00;;
14858;SDS011;7521;51.700;6.874;2024-02-21T17:57:25;10.43;;;6.10;;
14858;SDS011;7521;51.700;6.874;2024-02-21T18:00:31;9.13;;;4.47;;
14858;SDS011;7521;51.700;6.874;2024-02-21T18:03:36;15.23;;;6.63;;
14858;SDS011;7521;51.700;6.874;2024-02-21T18:06:42;11.80;;;5.93;;
14858;SDS011;7521;51.700;6.874;2024-02-21T18:09:47;9.93;;;4.97;;
14858;SDS011;7521;51.700;6.874;2024-02-21T18:12:53;11.70;;;7.70;;
14858;SDS011;7521;51.700;6.874;2024-02-21T18:15:58;7.73;;;4.00;;
14858;SDS011;7521;51.700;6.874;2024-02-21T18:19:07;7.37;;;3.90;;
14858;SDS011;7521;51.700;6.874;2024-02-21T18:22:12;7.57;;;3.43;;
14858;SDS011;7521;51.700;6.874;2024-02-21T18:25:18;7.47;;;3.30;;
14858;SDS011;7521;51.700;6.874;2024-02-21T18:28:23;8.13;;;4.10;;
14858;SDS011;7521;51.700;6.874;2024-02-21T18:31:28;11.00;;;4.83;;
14858;SDS011;7521;51.700;6.874;2024-02-21T18:34:33;7.20;;;3.60;;
14858;SDS011;7521;51.700;6.874;2024-02-21T18:37:39;8.97;;;3.77;;
14858;SDS011;7521;51.700;6.874;2024-02-21T18:40:44;6.97;;;3.60;;
14858;SDS011;7521;51.700;6.874;2024-02-21T18:43:49;5.73;;;3.10;;
14858;SDS011;7521;51.700;6.874;2024-02-21T18:46:55;8.53;;;3.53;;
14858;SDS011;7521;51.700;6.874;2024-02-21T18:50:01;6.10;;;2.93;;